createdAt,value
2023-12-14T16:55:28.515Z,17.20
2023-12-14T16:56:29.497Z,17.00
2023-12-14T16:57:29.434Z,16.70
2023-12-14T16:58:29.390Z,16.90
2023-12-14T16:59:29.388Z,16.90
2023-12-14T17:00:29.261Z,16.60
2023-12-14T17:01:29.238Z,16.50
2023-12-14T17:02:29.223Z,15.50
2023-12-14T17:03:29.153Z,16.20
2023-12-14T17:04:29.090Z,15.90
2023-12-14T17:05:29.114Z,15.80
2023-12-14T17:06:28.985Z,16.00
2023-12-14T17:07:28.921Z,15.60
2023-12-14T17:08:28.869Z,15.50
2023-12-14T17:09:28.879Z,14.80
2023-12-14T17:10:30.741Z,14.80
2023-12-14T17:11:28.696Z,15.80
2023-12-14T17:12:28.655Z,15.20
2023-12-14T17:13:28.588Z,15.10
2023-12-14T17:14:28.669Z,14.40
2023-12-14T17:15:28.466Z,14.80
2023-12-14T17:16:28.420Z,14.00
2023-12-14T17:17:28.358Z,14.80
2023-12-14T17:18:28.330Z,14.60
2023-12-14T17:19:28.236Z,14.20
2023-12-14T17:20:28.263Z,14.60
2023-12-14T17:21:28.151Z,13.60
2023-12-14T17:22:28.104Z,14.20
2023-12-14T17:23:28.035Z,13.80
2023-12-14T17:24:27.971Z,13.60
2023-12-14T17:25:27.913Z,13.60
2023-12-14T17:26:27.954Z,13.50
2023-12-14T17:27:27.806Z,13.40
2023-12-14T17:28:27.828Z,13.70
2023-12-14T17:29:27.709Z,13.00
2023-12-14T17:30:27.709Z,13.50
2023-12-14T17:31:27.697Z,13.40
2023-12-14T17:32:27.605Z,12.90
2023-12-14T17:33:27.570Z,13.30
2023-12-14T17:34:27.482Z,12.40
2023-12-14T17:35:27.428Z,13.40
2023-12-14T17:36:27.303Z,13.40
2023-12-14T17:37:27.275Z,12.50
2023-12-14T17:38:27.257Z,12.40
2023-12-14T17:39:27.202Z,12.60
2023-12-14T17:40:01.193Z,11.70
2023-12-14T17:41:05.420Z,12.60
2023-12-14T17:42:05.732Z,12.80
2023-12-14T17:43:05.690Z,12.30
2023-12-14T18:45:43.699Z,12.10
